Time;durP1;ratioP1;P1;durP2;ratioP2;P2;SDS_P1;SDS_P2;PMS_P1;PMS_P2;Temp;Humidity;BMP_temperature;BMP_pressure;BME280_temperature;BME280_humidity;BME280_pressure;Samples;Min_cycle;Max_cycle;Signal;HPM_P1;HPM_P2
2023/06/26 00:01:24;;;;;;;12.35;9.90;;;;;;;;;;5061536;28;20090;-77
2023/06/26 00:03:50;;;;;;;10.52;9.15;;;;;;;;;;5054943;28;20052;-77
2023/06/26 00:06:16;;;;;;;10.32;9.13;;;;;;;;;;5050588;28;20051;-77
2023/06/26 00:08:43;;;;;;;11.00;9.43;;;;;;;;;;5048704;28;20044;-77
2023/06/26 00:11:09;;;;;;;11.10;9.95;;;;;;;;;;5040766;28;20068;-77
2023/06/26 00:13:35;;;;;;;12.52;10.23;;;;;;;;;;5052474;28;20106;-77
2023/06/26 00:16:03;;;;;;;10.82;9.70;;;;;;;;;;5052625;28;20044;-76
2023/06/26 00:18:29;;;;;;;11.10;10.00;;;;;;;;;;5053096;28;20040;-77
2023/06/26 00:20:55;;;;;;;12.38;10.00;;;;;;;;;;5054652;28;20044;-77
2023/06/26 00:23:21;;;;;;;10.30;9.30;;;;;;;;;;5054037;28;20041;-76
2023/06/26 00:25:48;;;;;;;13.35;9.95;;;;;;;;;;5051674;28;20047;-77
2023/06/26 00:28:14;;;;;;;12.35;10.80;;;;;;;;;;5051364;28;20048;-77
2023/06/26 00:30:40;;;;;;;12.73;10.35;;;;;;;;;;5044338;28;20056;-77
2023/06/26 00:33:06;;;;;;;12.10;10.82;;;;;;;;;;5053167;28;20037;-77
2023/06/26 00:35:32;;;;;;;11.65;10.48;;;;;;;;;;5049159;28;20569;-76
2023/06/26 00:37:58;;;;;;;12.32;11.00;;;;;;;;;;5049818;28;20056;-77
2023/06/26 00:40:26;;;;;;;12.30;11.02;;;;;;;;;;5048408;28;20484;-77
2023/06/26 00:42:52;;;;;;;12.73;11.48;;;;;;;;;;5034883;28;20086;-76
2023/06/26 00:45:18;;;;;;;13.68;11.40;;;;;;;;;;5028623;28;20072;-77
2023/06/26 00:47:44;;;;;;;16.85;11.50;;;;;;;;;;5042491;28;20362;-77
2023/06/26 00:50:10;;;;;;;13.38;11.93;;;;;;;;;;5051855;28;20040;-77
2023/06/26 00:52:37;;;;;;;13.82;12.48;;;;;;;;;;5051057;28;20044;-77
2023/06/26 00:55:04;;;;;;;12.60;11.40;;;;;;;;;;5047484;28;20181;-76
2023/06/26 00:57:30;;;;;;;14.40;11.85;;;;;;;;;;5048308;28;20477;-76
2023/06/26 00:59:57;;;;;;;14.00;11.45;;;;;;;;;;5047572;28;20098;-76
2023/06/26 01:02:23;;;;;;;12.25;11.05;;;;;;;;;;5049073;28;20048;-75
2023/06/26 01:04:50;;;;;;;15.90;11.63;;;;;;;;;;5048409;28;20040;-76
2023/06/26 01:07:18;;;;;;;13.00;11.63;;;;;;;;;;5047105;28;20048;-77
2023/06/26 01:09:45;;;;;;;13.77;11.82;;;;;;;;;;5045616;28;20044;-77
2023/06/26 01:12:11;;;;;;;13.30;12.00;;;;;;;;;;5049451;28;20177;-77
2023/06/26 01:14:37;;;;;;;13.45;11.40;;;;;;;;;;5050644;28;20048;-77
2023/06/26 01:17:04;;;;;;;12.90;11.70;;;;;;;;;;5048181;28;20051;-76
2023/06/26 01:19:33;;;;;;;16.10;11.85;;;;;;;;;;5050623;28;20040;-76
2023/06/26 01:22:14;;;;;;;12.55;11.45;;;;;;;;;;5026161;28;20465;-77
2023/06/26 01:24:43;;;;;;;12.90;11.60;;;;;;;;;;5047180;28;20048;-77
2023/06/26 01:27:09;;;;;;;14.45;12.35;;;;;;;;;;5050122;28;20146;-76
2023/06/26 01:29:35;;;;;;;12.23;11.02;;;;;;;;;;5053099;28;20484;-76
2023/06/26 01:32:01;;;;;;;17.75;13.07;;;;;;;;;;5049525;28;20052;-76
2023/06/26 01:34:27;;;;;;;13.93;12.13;;;;;;;;;;5052433;28;20032;-77
2023/06/26 01:36:54;;;;;;;13.27;11.75;;;;;;;;;;5046662;28;20515;-76
2023/06/26 01:39:20;;;;;;;14.60;11.23;;;;;;;;;;5052237;28;21669;-77
2023/06/26 01:41:46;;;;;;;14.50;12.77;;;;;;;;;;5052537;28;20047;-76
2023/06/26 01:44:18;;;;;;;12.77;11.57;;;;;;;;;;5051004;28;20500;-76
2023/06/26 01:46:49;;;;;;;11.88;10.63;;;;;;;;;;5051990;28;20106;-76
2023/06/26 01:49:52;;;;;;;13.65;10.95;;;21.90;99.90;;;;;;5051194;28;20507;-76
2023/06/26 01:52:27;;;;;;;12.98;11.77;;;;;;;;;;5052690;28;20284;-76
2023/06/26 01:54:56;;;;;;;12.93;11.60;;;;;;;;;;5047664;28;20044;-76
2023/06/26 01:57:22;;;;;;;13.40;12.10;;;;;;;;;;5048425;28;20063;-76
2023/06/26 01:59:49;;;;;;;15.02;12.23;;;;;;;;;;5043341;28;20044;-77
2023/06/26 02:02:15;;;;;;;13.27;11.77;;;;;;;;;;5046308;28;20072;-77
2023/06/26 02:04:41;;;;;;;15.50;11.90;;;;;;;;;;5045986;28;20131;-76
2023/06/26 02:07:09;;;;;;;13.73;12.18;;;;;;;;;;5045869;28;20559;-76
2023/06/26 02:09:35;;;;;;;13.40;12.00;;;;;;;;;;5025029;28;21997;-77
2023/06/26 02:12:01;;;;;;;15.95;11.88;;;;;;;;;;5046937;28;20044;-77
2023/06/26 02:14:27;;;;;;;18.05;12.85;;;;;;;;;;5045938;28;20044;-77
2023/06/26 02:16:53;;;;;;;14.82;12.43;;;;;;;;;;5045092;28;21676;-77
2023/06/26 02:19:21;;;;;;;14.27;12.88;;;;;;;;;;5029000;28;20044;-77
2023/06/26 02:21:48;;;;;;;14.25;11.98;;;;;;;;;;5048799;28;20052;-77
2023/06/26 02:24:14;;;;;;;17.50;12.77;;;;;;;;;;5047439;28;20219;-77
2023/06/26 02:26:40;;;;;;;14.50;12.65;;;;;;;;;;5045690;28;20048;-77
2023/06/26 02:29:06;;;;;;;12.95;11.70;;;;;;;;;;5046116;28;20041;-77
2023/06/26 02:31:32;;;;;;;13.90;12.60;;;;;;;;;;5044344;28;20044;-77
2023/06/26 02:33:58;;;;;;;12.98;11.68;;;;;;;;;;5047307;28;20041;-77
2023/06/26 02:36:24;;;;;;;14.15;12.60;;;;;;;;;;5048461;28;20107;-77
2023/06/26 02:38:50;;;;;;;16.73;12.52;;;;;;;;;;5046083;28;20177;-76
2023/06/26 02:41:16;;;;;;;13.35;11.95;;;;;;;;;;5045286;28;20092;-76
2023/06/26 02:43:42;;;;;;;13.93;12.63;;;;;;;;;;5044511;28;20548;-76
2023/06/26 02:46:08;;;;;;;14.38;12.68;;;;;;;;;;5043845;28;20123;-77
2023/06/26 02:48:35;;;;;;;13.02;11.70;;;;;;;;;;5044286;28;20044;-77
2023/06/26 02:51:01;;;;;;;20.75;13.45;;;;;;;;;;5022741;28;20186;-76
2023/06/26 02:53:27;;;;;;;15.60;12.65;;;;;;;;;;5022750;28;20497;-77
2023/06/26 02:55:53;;;;;;;14.80;13.27;;;;;;;;;;5024504;28;20603;-76
2023/06/26 02:58:19;;;;;;;14.90;13.38;;;;;;;;;;5060163;28;20078;-77
2023/06/26 03:09:28;;;;;;;15.65;14.13;;;;;;;;;;5101819;23;20350;31
2023/06/26 03:11:55;;;;;;;21.73;15.20;;;;;;;;;;5152057;22;20058;-76
2023/06/26 03:17:48;;;;;;;17.75;15.18;;;;;;;;;;5038837;23;20142;-77
2023/06/26 03:20:15;;;;;;;15.85;14.25;;;;;;;;;;4891040;28;20614;-76
2023/06/26 03:22:41;;;;;;;17.02;15.02;;;;;;;;;;4926216;28;20556;-77
2023/06/26 03:25:07;;;;;;;17.65;14.68;;;;;;;;;;4910619;29;20747;-76
2023/06/26 03:27:33;;;;;;;16.75;15.02;;;;;;;;;;4923442;28;20035;-76
2023/06/26 03:30:00;;;;;;;16.92;15.13;;;;;;;;;;4904248;29;21853;-76
2023/06/26 03:32:26;;;;;;;16.85;15.07;;;;;;;;;;4922527;28;20048;-77
2023/06/26 03:34:52;;;;;;;16.65;14.95;;;;;;;;;;4908518;28;20047;-76
2023/06/26 03:37:20;;;;;;;18.85;14.48;;;;;;;;;;4908466;28;20047;-76
2023/06/26 03:39:46;;;;;;;16.60;14.90;;;;;;;;;;4925563;28;20046;-76
2023/06/26 03:42:12;;;;;;;16.13;14.43;;;;;;;;;;4925178;28;20494;-76
2023/06/26 03:44:38;;;;;;;16.20;14.07;;;;;;;;;;4925823;28;20092;-76
2023/06/26 03:47:04;;;;;;;17.00;15.20;;;;;;;;;;4905105;28;20053;-76
2023/06/26 03:49:30;;;;;;;16.90;14.45;;;;;;;;;;4904228;28;20510;-76
2023/06/26 03:51:56;;;;;;;17.90;12.90;;;;;;;;;;4908708;28;20043;-76
2023/06/26 03:54:22;;;;;;;14.93;12.68;;;;;;;;;;4906302;28;20344;-76
2023/06/26 03:56:49;;;;;;;20.02;14.35;;;;;;;;;;4922632;28;20794;-76
2023/06/26 03:59:15;;;;;;;14.13;12.40;;;;;;;;;;4905854;29;20051;-77
2023/06/26 04:01:41;;;;;;;14.50;13.00;;;;;;;;;;4903009;28;20126;-77
2023/06/26 04:04:07;;;;;;;16.17;12.35;;;;;;;;;;4919581;28;20456;-77
2023/06/26 04:06:33;;;;;;;17.05;11.82;;;;;;;;;;4923903;28;20386;-77
2023/06/26 04:08:59;;;;;;;14.73;11.80;;;;;;;;;;4906301;29;20055;-77
2023/06/26 04:11:26;;;;;;;18.98;11.70;;;;;;;;;;4906062;28;20191;-77
2023/06/26 04:13:52;;;;;;;13.52;11.75;;;;;;;;;;4906920;28;20593;-76
2023/06/26 04:16:18;;;;;;;13.60;12.20;;;;;;;;;;4906229;28;20487;-77
2023/06/26 04:18:44;;;;;;;13.07;11.68;;;;;;;;;;4902495;28;20514;-77
2023/06/26 04:21:11;;;;;;;13.23;11.93;;;;;;;;;;4901535;28;20650;-77
2023/06/26 04:23:37;;;;;;;14.98;12.52;;;;;;;;;;4903263;28;20098;-77
2023/06/26 04:26:04;;;;;;;16.88;12.68;;;;;;;;;;4901779;28;20078;-77
2023/06/26 04:28:32;;;;;;;14.52;13.00;;;;;;;;;;4924272;28;20111;-77
2023/06/26 04:30:58;;;;;;;14.93;13.43;;;;;;;;;;4900562;28;20055;-76
2023/06/26 04:33:25;;;;;;;14.88;13.15;;;;;;;;;;4904590;28;20173;-76
2023/06/26 04:35:51;;;;;;;14.43;12.95;;;;;;;;;;4908938;28;20439;-77
2023/06/26 04:38:17;;;;;;;13.45;12.15;;;;;;;;;;4908448;28;20563;-77
2023/06/26 04:40:43;;;;;;;15.82;12.85;;;;;;;;;;4907464;28;20043;-77
2023/06/26 04:43:10;;;;;;;15.73;13.20;;;;;;;;;;4907968;29;20054;-77
2023/06/26 04:45:36;;;;;;;15.20;13.30;;;;;;;;;;4903782;28;20146;-76
2023/06/26 04:48:02;;;;;;;13.85;12.18;;;;;;;;;;4896058;28;20053;-77
2023/06/26 04:50:28;;;;;;;17.00;13.52;;;;;;;;;;4903544;29;20048;-77
2023/06/26 04:52:58;;;;;;;14.18;12.73;;;;;;;;;;4904480;28;20114;-77
2023/06/26 04:55:28;;;;;;;15.82;13.40;;;;;;;;;;4901846;28;20721;-76
2023/06/26 04:57:54;;;;;;;15.10;11.57;;;;;;;;;;4903684;29;20040;-77
2023/06/26 05:00:20;;;;;;;14.20;11.32;;;;;;;;;;4905799;29;20062;-77
2023/06/26 05:02:46;;;;;;;18.23;10.98;;;;;;;;;;4905009;29;20126;-77
2023/06/26 05:05:12;;;;;;;10.90;9.80;;;;;;;;;;4903899;29;20134;-77
2023/06/26 05:07:38;;;;;;;11.35;10.15;;;;;;;;;;4902693;29;20051;-77
2023/06/26 05:10:04;;;;;;;16.38;11.20;;;;;;;;;;4913318;28;20040;-77
2023/06/26 05:12:31;;;;;;;14.27;10.57;;;;;;;;;;4899810;28;20316;-77
2023/06/26 05:14:57;;;;;;;13.52;9.55;;;;;;;;;;4901186;28;20079;-77
2023/06/26 05:17:23;;;;;;;13.70;9.63;;;;;;;;;;4905951;29;20059;-77
2023/06/26 05:19:49;;;;;;;17.35;10.77;;;;;;;;;;4900897;28;20491;-77
2023/06/26 05:22:16;;;;;;;15.68;9.93;;;;;;;;;;4888691;29;20044;-77
2023/06/26 05:24:46;;;;;;;15.18;9.90;;;;;;;;;;4918475;28;20048;-77
2023/06/26 05:27:19;;;;;;;12.23;9.98;;;;;;;;;;4898555;29;20071;-77
2023/06/26 05:29:45;;;;;;;15.27;10.82;;;;;;;;;;4886521;28;20133;-77
2023/06/26 05:32:12;;;;;;;16.98;11.63;;;;;;;;;;4906860;28;20075;-77
2023/06/26 05:34:38;;;;;;;16.73;11.70;;;;;;;;;;4904198;29;20047;-77
2023/06/26 05:37:05;;;;;;;19.38;11.90;;;;;;;;;;4902316;28;20058;-77
2023/06/26 05:39:31;;;;;;;22.92;12.82;;;;;;;;;;4924244;28;20052;-76
2023/06/26 05:41:57;;;;;;;22.20;12.95;;;;;;;;;;4895726;28;20518;-76
2023/06/26 05:44:24;;;;;;;29.98;14.02;;;;;;;;;;4912595;28;21818;-76
2023/06/26 05:46:50;;;;;;;27.42;17.27;;;;;;;;;;4927923;28;20071;-77
2023/06/26 05:49:16;;;;;;;33.88;16.63;;;;;;;;;;4916687;29;20499;-76
2023/06/26 05:51:42;;;;;;;22.05;13.50;;;;;;;;;;4914619;28;20043;-77
2023/06/26 05:54:08;;;;;;;21.67;10.55;;;;;;;;;;4900409;28;20061;-77
2023/06/26 05:56:34;;;;;;;28.67;10.88;;;;;;;;;;4920001;28;21841;-77
2023/06/26 05:59:02;;;;;;;23.33;8.93;;;;;;;;;;4904183;29;20062;-77
2023/06/26 06:01:28;;;;;;;19.33;9.30;;;;;;;;;;4920330;28;20039;-77
2023/06/26 06:03:54;;;;;;;22.65;8.35;;;;;;;;;;4919612;28;20204;-77
2023/06/26 06:06:20;;;;;;;18.33;7.65;;;;;;;;;;4901424;28;20081;-77
2023/06/26 06:08:46;;;;;;;20.48;6.82;;;;;;;;;;4904244;29;20149;-77
2023/06/26 06:11:13;;;;;;;16.55;7.60;;;;;;;;;;4924899;28;20047;-77
2023/06/26 06:13:39;;;;;;;19.08;6.13;;;;;;;;;;4923061;28;20051;-77
2023/06/26 06:16:05;;;;;;;20.05;7.05;;;;;;;;;;4902730;28;20047;-77
2023/06/26 06:18:31;;;;;;;15.27;5.90;;;;;;;;;;4919260;28;20054;-77
2023/06/26 06:20:57;;;;;;;20.98;5.57;;;;;;;;;;4894792;28;20227;-76
2023/06/26 06:23:23;;;;;;;14.38;5.10;;;;;;;;;;4903719;29;20051;-76
2023/06/26 06:25:49;;;;;;;18.48;5.72;;;;;;;;;;4913538;28;20047;-76
2023/06/26 06:28:16;;;;;;;26.60;6.00;;;;;;;;;;4903228;29;20435;-77
2023/06/26 06:30:42;;;;;;;21.95;5.70;;;;;;;;;;4904886;29;20074;-77
2023/06/26 06:33:08;;;;;;;9.75;4.30;;;;;;;;;;4920596;28;20086;-77
2023/06/26 06:35:34;;;;;;;15.70;4.97;;;;;;;;;;4918239;28;20047;-77
2023/06/26 06:38:01;;;;;;;15.38;4.65;;;;;;;;;;4903949;28;20057;-77
2023/06/26 06:40:27;;;;;;;20.35;4.88;;;;;;;;;;4918016;28;20039;-76
2023/06/26 06:42:53;;;;;;;18.02;5.28;;;;;;;;;;4919912;28;20098;-77
2023/06/26 06:45:19;;;;;;;17.63;4.03;;;;;;;;;;4905169;28;22424;-78
2023/06/26 06:47:45;;;;;;;12.73;3.90;;;;;;;;;;4905505;28;20130;-76
2023/06/26 06:50:11;;;;;;;11.35;3.38;;;;;;;;;;4905657;28;20169;-77
2023/06/26 06:52:38;;;;;;;11.00;3.10;;;;;;;;;;4905299;28;20051;-77
2023/06/26 06:55:05;;;;;;;22.98;4.78;;;;;;;;;;4906035;28;20052;-78
2023/06/26 06:57:37;;;;;;;14.32;3.05;;;;;;;;;;4905036;28;20047;-77
2023/06/26 07:00:11;;;;;;;12.27;3.58;;;;;;;;;;4904103;28;20055;-77
2023/06/26 07:02:41;;;;;;;12.68;2.75;;;;;;;;;;4906194;29;20154;-76
2023/06/26 07:05:07;;;;;;;13.52;2.90;;;;;;;;;;4923687;28;20189;-76
2023/06/26 07:07:34;;;;;;;10.85;2.85;;;;;;;;;;4892043;29;20910;-78
2023/06/26 07:10:01;;;;;;;13.18;3.13;;;;;;;;;;4906604;28;20455;-76
2023/06/26 07:12:27;;;;;;;8.70;2.92;;;;;;;;;;4904000;29;20399;-77
2023/06/26 07:14:54;;;;;;;10.35;2.80;;;;;;;;;;4905152;29;20047;-77
2023/06/26 07:17:21;;;;;;;17.42;3.35;;;;;;;;;;4908110;28;21871;-78
2023/06/26 07:19:47;;;;;;;13.23;3.05;;;;;;;;;;4923277;28;20106;-77
2023/06/26 07:22:13;;;;;;;10.18;2.53;;;;;;;;;;4906198;28;20047;-77
2023/06/26 07:24:39;;;;;;;9.52;2.38;;;;;;;;;;4905687;28;20054;-78
2023/06/26 07:27:06;;;;;;;11.43;3.33;;;;;;;;;;4923327;28;20582;-78
2023/06/26 07:29:32;;;;;;;10.52;3.05;;;;;;;;;;4905321;28;20044;-77
2023/06/26 07:31:58;;;;;;;14.85;2.92;;;;;;;;;;4905169;28;20539;-77
2023/06/26 07:34:24;;;;;;;10.93;2.42;;;;;;;;;;4902117;28;20066;-77
2023/06/26 07:36:50;;;;;;;8.70;2.40;;;;;;;;;;4907460;28;20182;-78
2023/06/26 07:39:16;;;;;;;13.45;2.47;;;;;;;;;;4906707;28;20047;-77
2023/06/26 07:41:42;;;;;;;11.27;2.85;;;;;;;;;;4898573;28;20464;-76
2023/06/26 07:44:08;;;;;;;8.63;2.22;;;;;;;;;;4923812;28;20073;-77
2023/06/26 07:46:34;;;;;;;8.80;2.13;;;;;;;;;;4907523;28;20462;-76
2023/06/26 07:49:00;;;;;;;8.63;2.63;;;;;;;;;;4903010;28;20054;-77
2023/06/26 07:51:26;;;;;;;8.77;2.33;;;;;;;;;;4921560;28;20047;-77
2023/06/26 07:53:52;;;;;;;6.72;2.08;;;;;;;;;;4890472;28;20043;-77
2023/06/26 07:56:19;;;;;;;8.25;2.22;;;;;;;;;;4922231;28;20170;-77
2023/06/26 07:58:45;;;;;;;12.10;2.50;;;;;;;;;;4902875;28;20054;-77
2023/06/26 08:01:11;;;;;;;10.27;2.30;;;;;;;;;;4924758;28;20130;-76
2023/06/26 08:03:37;;;;;;;6.57;1.90;;;;;;;;;;4903461;28;20057;-79
2023/06/26 08:06:03;;;;;;;10.38;2.55;;;;;;;;;;4905459;29;20095;-77
2023/06/26 08:08:29;;;;;;;10.23;2.67;;;;;;;;;;4924401;28;20039;-77
2023/06/26 08:10:55;;;;;;;10.20;2.63;;;;;;;;;;4908300;28;20091;-78
2023/06/26 08:13:21;;;;;;;8.82;2.20;;;;;;;;;;4923647;28;21964;-78
2023/06/26 08:15:47;;;;;;;7.68;1.92;;;;;;;;;;4921314;28;20054;-77
2023/06/26 08:18:13;;;;;;;9.38;2.05;;;;;;;;;;4906385;28;20158;-77
2023/06/26 08:20:39;;;;;;;10.52;2.00;;;;;;;;;;4906152;28;20098;-78
2023/06/26 08:23:06;;;;;;;5.22;1.83;;;;;;;;;;4908226;29;20051;-78
2023/06/26 08:25:32;;;;;;;8.32;2.45;;;;;;;;;;4922755;28;20098;-78
2023/06/26 08:27:59;;;;;;;9.65;2.35;;;;;;;;;;4922505;28;20119;-81
2023/06/26 08:30:27;;;;;;;7.78;2.15;;;;;;;;;;4920068;28;20464;-80
2023/06/26 08:32:54;;;;;;;7.13;1.88;;;;;;;;;;4908261;29;20069;-81
2023/06/26 08:35:20;;;;;;;8.60;1.80;;;;;;;;;;4894061;29;20155;-81
2023/06/26 08:37:47;;;;;;;10.32;2.40;;;;;;;;;;4909689;28;20555;-82
2023/06/26 08:40:19;;;;;;;4.47;1.55;;;;;;;;;;4912493;28;20465;-82
2023/06/26 08:42:45;;;;;;;11.68;2.40;;;;;;;;;;4908947;28;20040;-79
2023/06/26 08:45:12;;;;;;;6.90;1.92;;;;;;;;;;4909248;28;20058;-79
2023/06/26 08:47:38;;;;;;;6.15;1.90;;;;;;;;;;4918572;28;20105;-81
2023/06/26 08:50:09;;;;;;;6.50;1.60;;;;;;;;;;4909901;29;20060;-81
2023/06/26 08:52:44;;;;;;;7.07;2.05;;;;;;;;;;4912235;28;20051;-81
2023/06/26 08:55:13;;;;;;;8.55;2.00;;;;;;;;;;4910662;28;21844;-81
2023/06/26 08:57:40;;;;;;;7.65;2.33;;;;;;;;;;4912173;28;20108;-80
2023/06/26 09:00:08;;;;;;;7.45;2.05;;;;;;;;;;4901509;28;20048;-81
2023/06/26 09:02:35;;;;;;;8.38;1.80;;;;;;;;;;4910794;28;20059;-81
2023/06/26 09:05:02;;;;;;;6.47;1.80;;;;;;;;;;4911096;29;20047;-82
2023/06/26 09:07:28;;;;;;;4.70;1.50;;;;;;;;;;4910383;28;20051;-81
2023/06/26 09:09:54;;;;;;;5.45;1.90;;;;;;;;;;4911112;28;20047;-81
2023/06/26 09:12:21;;;;;;;9.30;1.75;;;;;;;;;;4909896;28;20049;-81
2023/06/26 09:14:47;;;;;;;10.68;1.80;;;;;;;;;;4925892;28;20146;-81
2023/06/26 09:17:14;;;;;;;9.40;2.65;;;;;;;;;;4906048;29;20079;-81
2023/06/26 09:19:40;;;;;;;13.93;2.90;;;;;;;;;;4910223;29;20749;-82
2023/06/26 09:22:12;;;;;;;5.47;1.42;;;;;;;;;;4906442;29;20055;-80
2023/06/26 09:24:38;;;;;;;4.45;1.60;;;;;;;;;;4922920;28;20429;-81
2023/06/26 09:27:04;;;;;;;7.03;2.00;;;;;;;;;;4907642;29;20122;-80
2023/06/26 09:29:31;;;;;;;6.43;1.73;;;;;;;;;;4906239;29;20523;-80
2023/06/26 09:31:57;;;;;;;5.63;2.00;;;;;;;;;;4898018;29;20166;-76
2023/06/26 09:34:30;;;;;;;8.15;1.65;;;;;;;;;;4912300;28;20059;-79
2023/06/26 09:36:56;;;;;;;6.65;1.98;;;;;;;;;;4900469;29;20060;-78
2023/06/26 09:39:22;;;;;;;7.55;2.58;;;;;;;;;;4905509;29;20058;-78
2023/06/26 09:41:48;;;;;;;7.05;1.88;;;;;;;;;;4904987;29;20043;-76
2023/06/26 09:44:15;;;;;;;6.75;1.98;;;;;;;;;;4903226;29;20575;-77
2023/06/26 09:46:41;;;;;;;9.02;2.25;;;;;;;;;;4905625;29;20401;-75
2023/06/26 09:49:10;;;;;;;4.80;1.92;;;;;;;;;;4904350;29;20056;-75
2023/06/26 09:51:37;;;;;;;6.05;1.90;;;;;;;;;;4910079;29;20048;-75
2023/06/26 09:54:03;;;;;;;6.10;2.25;;;;;;;;;;4904016;29;20052;-75
2023/06/26 09:56:30;;;;;;;5.88;2.05;;;;;;;;;;4889573;28;20052;-76
2023/06/26 09:58:57;;;;;;;5.53;2.03;;;;;;;;;;4908255;29;20047;-76
2023/06/26 10:01:24;;;;;;;6.65;2.17;;;;;;;;;;4903694;28;21725;-77
2023/06/26 10:03:50;;;;;;;3.90;1.98;;;;;;;;;;4902143;28;20066;-76
2023/06/26 10:06:18;;;;;;;3.60;1.60;;;;;;;;;;4919860;28;20098;-76
2023/06/26 10:08:44;;;;;;;3.85;2.17;;;;;;;;;;4918890;28;20051;-74
2023/06/26 10:11:14;;;;;;;7.63;2.35;;;;;;;;;;4896851;28;20047;-74
2023/06/26 10:13:46;;;;;;;5.78;2.10;;;;;;;;;;4904630;28;20130;-73
2023/06/26 10:16:12;;;;;;;5.18;2.15;;;;;;;;;;4901474;28;20618;-74
2023/06/26 10:18:39;;;;;;;8.15;2.17;;;;;;;;;;4892621;28;20597;-73
2023/06/26 10:21:07;;;;;;;7.57;2.72;;;;;;;;;;4899876;29;20094;-73
2023/06/26 10:23:33;;;;;;;5.10;1.95;;;;;;;;;;4902317;28;20629;-73
2023/06/26 10:26:01;;;;;;;6.28;2.20;;;;;;;;;;4901774;28;20187;-75
2023/06/26 10:28:29;;;;;;;8.00;2.60;;;;;;;;;;4888731;28;20073;-74
2023/06/26 10:30:55;;;;;;;8.55;2.72;;;;;;;;;;4919568;28;20047;-74
2023/06/26 10:33:22;;;;;;;11.35;2.00;;;;;;;;;;4919596;28;20051;-74
2023/06/26 10:35:49;;;;;;;5.95;2.17;;;;;;;;;;4901511;28;20070;-73
2023/06/26 10:38:15;;;;;;;6.47;2.30;;;;;;;;;;4870335;29;20057;-73
2023/06/26 10:40:51;;;;;;;7.20;2.35;;;;;;;;;;4895792;28;20133;-73
2023/06/26 10:43:20;;;;;;;4.93;2.15;;;;;;;;;;4903272;29;20404;-72
2023/06/26 10:45:52;;;;;;;5.93;1.75;;;;;;;;;;4921438;28;20055;-73
2023/06/26 10:48:18;;;;;;;5.03;2.00;;;;;;;;;;4922756;28;20074;-73
2023/06/26 10:50:47;;;;;;;5.10;2.10;;;;;;;;;;4904830;29;20082;-73
2023/06/26 10:53:34;;;;;;;4.50;2.00;;;;;;;;;;4922069;28;20121;-73
2023/06/26 10:56:02;;;;;;;7.00;2.10;;;;;;;;;;4908897;29;20058;-74
2023/06/26 10:58:29;;;;;;;8.10;2.22;;;;;;;;;;4896887;28;20099;-76
2023/06/26 11:01:14;;;;;;;6.00;2.25;;;;;;;;;;4902062;29;20052;-76
2023/06/26 11:03:41;;;;;;;5.13;2.03;;;;;;;;;;4904715;28;20058;-75
2023/06/26 11:06:11;;;;;;;6.65;1.88;;;;;;;;;;4909082;28;20070;-74
2023/06/26 11:08:53;;;;;;;4.18;2.08;;;;;;;;;;4901323;28;20058;-75
2023/06/26 11:11:20;;;;;;;4.53;2.30;;;;;;;;;;4899505;28;20049;-76
2023/06/26 11:13:47;;;;;;;6.63;2.55;;;;;;;;;;4916878;28;20066;-74
2023/06/26 11:16:14;;;;;;;6.25;2.70;;;;;;;;;;4922498;28;20042;-74
2023/06/26 11:18:41;;;;;;;4.35;2.60;;;;;;;;;;4905398;28;21757;-74
2023/06/26 11:21:13;;;;;;;7.25;2.65;;;;;;;;;;4906848;29;20571;-74
2023/06/26 11:23:39;;;;;;;7.82;2.55;;;;;;;;;;4905646;28;20055;-73
2023/06/26 11:26:16;;;;;;;9.20;2.72;;;;;;;;;;4914999;28;20767;-73
2023/06/26 11:28:49;;;;;;;7.22;2.05;;;;;;;;;;4905337;28;20078;-73
2023/06/26 11:31:30;;;;;;;10.20;2.13;;;;;;;;;;4923949;28;20058;-72
2023/06/26 11:33:56;;;;;;;5.35;1.75;;;;;;;;;;4905265;29;20066;-75
2023/06/26 11:36:26;;;;;;;5.93;1.92;;;;;;;;;;4905434;29;20510;-76
2023/06/26 11:38:56;;;;;;;8.82;2.45;;;;;;;;;;4903278;28;20055;-76
2023/06/26 11:41:22;;;;;;;6.80;1.80;;;;;;;;;;4902428;28;20051;-74
2023/06/26 11:43:49;;;;;;;6.43;2.15;;;;;;;;;;4915745;28;20054;-74
2023/06/26 11:46:17;;;;;;;7.35;2.20;;;;;;;;;;4918624;28;20050;-74
2023/06/26 11:48:43;;;;;;;5.13;2.17;;;;;;;;;;4916993;28;20051;-75
2023/06/26 11:51:10;;;;;;;3.65;1.90;;;;;;;;;;4918817;28;20058;-76
2023/06/26 11:53:43;;;;;;;8.20;2.00;;;;;;;;;;4924133;28;20143;-73
2023/06/26 11:56:13;;;;;;;11.30;1.88;;;;;;;;;;4919431;28;20130;-73
2023/06/26 11:59:02;;;;;;;5.03;1.65;;;;;;;;;;4903862;29;20043;-74
2023/06/26 12:01:38;;;;;;;9.85;2.10;;;;;;;;;;4902775;28;20058;-75
2023/06/26 12:04:05;;;;;;;6.57;1.83;;;;;;;;;;4903070;28;20066;-74
2023/06/26 12:06:32;;;;;;;7.78;1.95;;;;;;;;;;4903188;28;20085;-74
2023/06/26 12:08:59;;;;;;;7.32;1.90;;;;;;;;;;4899071;29;20050;-76
2023/06/26 12:11:26;;;;;;;7.63;1.92;;;;;;;;;;4890668;28;20054;-78
2023/06/26 12:13:52;;;;;;;7.82;2.05;;;;;;;;;;4908310;28;20134;-77
2023/06/26 12:16:19;;;;;;;7.88;2.20;;;;;;;;;;4901963;29;20102;-75
2023/06/26 12:18:45;;;;;;;4.80;1.55;;;;;;;;;;4907945;29;20102;-75
2023/06/26 12:21:30;;;;;;;3.55;1.70;;;;;;;;;;4907056;29;20484;-75
2023/06/26 12:24:00;;;;;;;10.68;2.03;;;;;;;;;;4909034;28;20079;-75
2023/06/26 12:26:27;;;;;;;9.07;1.98;;;;;;;;;;4924266;28;20054;-75
2023/06/26 12:28:53;;;;;;;7.28;1.92;;;;;;;;;;4898595;28;20094;-75
2023/06/26 12:31:21;;;;;;;7.47;1.70;;;;;;;;;;4907308;29;20058;-75
2023/06/26 12:33:47;;;;;;;5.88;2.10;;;;;;;;;;4927250;28;20084;-74
2023/06/26 12:36:13;;;;;;;5.90;1.60;;;;;;;;;;4909392;28;20244;-75
2023/06/26 12:38:40;;;;;;;11.00;3.03;;;;;;;;;;4927742;28;20039;-75
2023/06/26 12:41:13;;;;;;;9.57;2.42;;;;;;;;;;4927550;28;20050;-75
2023/06/26 12:43:39;;;;;;;9.20;2.40;;;;;;;;;;4916905;28;20500;-74
2023/06/26 12:46:06;;;;;;;5.80;1.80;;;;;;;;;;4927593;28;20306;-75
2023/06/26 12:48:43;;;;;;;8.38;2.10;;;;;;;;;;4893820;28;20043;-74
2023/06/26 12:51:16;;;;;;;3.33;1.70;;;;;;;;;;4910494;29;20051;-75
2023/06/26 12:53:42;;;;;;;6.10;1.70;;;;;;;;;;4894180;28;20138;-75
2023/06/26 12:56:09;;;;;;;6.57;2.00;;;;;;;;;;4910008;29;20626;-74
2023/06/26 12:58:35;;;;;;;8.45;1.98;;;;;;;;;;4909778;29;20047;-74
2023/06/26 13:01:07;;;;;;;4.40;1.35;;;;;;;;;;4910323;29;20050;-76
2023/06/26 13:03:33;;;;;;;4.60;1.88;;;;;;;;;;4927070;28;20051;-75
2023/06/26 13:05:59;;;;;;;3.47;1.42;;;;;;;;;;4927020;28;20444;-75
2023/06/26 13:08:25;;;;;;;6.45;1.60;;;;;;;;;;4908956;29;20678;-75
2023/06/26 13:10:51;;;;;;;11.07;1.70;;;;;;;;;;4927484;28;20074;-75
2023/06/26 13:13:18;;;;;;;6.28;1.60;;;;;;;;;;4910446;29;20484;-75
2023/06/26 13:15:44;;;;;;;4.85;1.50;;;;;;;;;;4883578;28;20051;-72
2023/06/26 13:18:10;;;;;;;5.47;1.48;;;;;;;;;;4897108;29;20419;-76
2023/06/26 13:20:36;;;;;;;8.45;1.65;;;;;;;;;;4914608;28;20058;-77
2023/06/26 13:23:02;;;;;;;4.88;1.83;;;;;;;;;;4904302;29;20451;-77
2023/06/26 13:25:28;;;;;;;4.95;1.50;;;;;;;;;;4903679;29;20444;-75
2023/06/26 13:27:55;;;;;;;5.65;1.65;;;;;;;;;;4901195;28;20559;-76
2023/06/26 13:30:21;;;;;;;5.88;1.83;;;;;;;;;;4903593;29;20071;-76
2023/06/26 13:32:47;;;;;;;5.82;1.70;;;;;;;;;;4903181;29;21157;-76
2023/06/26 13:35:14;;;;;;;8.27;1.80;;;;;;;;;;4903069;29;20094;-77
2023/06/26 13:37:41;;;;;;;6.68;1.90;;;;;;;;;;4905362;29;20112;-76
2023/06/26 13:40:07;;;;;;;9.13;1.90;;;;;;;;;;4903276;29;21747;-76
2023/06/26 13:42:33;;;;;;;6.13;1.80;;;;;;;;;;4902884;29;20059;-74
2023/06/26 13:44:59;;;;;;;6.25;2.42;;;;;;;;;;4920607;28;20040;-74
2023/06/26 13:47:25;;;;;;;6.28;1.60;;;;;;;;;;4903225;29;20097;-75
2023/06/26 13:49:52;;;;;;;8.13;2.08;;;;;;;;;;4905432;29;20791;-73
2023/06/26 13:52:18;;;;;;;6.70;1.70;;;;;;;;;;4928387;28;20066;-73
2023/06/26 13:54:44;;;;;;;8.57;1.85;;;;;;;;;;4908779;28;20047;-73
2023/06/26 13:57:10;;;;;;;7.45;2.13;;;;;;;;;;4925640;28;20153;-74
2023/06/26 13:59:41;;;;;;;8.70;1.80;;;;;;;;;;4908514;28;20058;-73
2023/06/26 14:02:08;;;;;;;8.90;1.77;;;;;;;;;;4907719;29;20050;-74
2023/06/26 14:04:34;;;;;;;6.28;1.73;;;;;;;;;;4912151;28;20051;-73
2023/06/26 14:07:00;;;;;;;9.20;1.92;;;;;;;;;;4906406;29;20063;-74
2023/06/26 14:09:27;;;;;;;5.47;1.90;;;;;;;;;;4921305;28;20055;-75
2023/06/26 14:11:53;;;;;;;11.75;2.30;;;;;;;;;;4903374;29;20054;-74
2023/06/26 14:14:19;;;;;;;9.98;1.88;;;;;;;;;;4918867;28;20055;-78
2023/06/26 14:16:45;;;;;;;11.00;2.33;;;;;;;;;;4901570;29;20138;-78
2023/06/26 14:19:15;;;;;;;7.30;1.80;;;;;;;;;;4895837;28;20432;-76
2023/06/26 14:21:41;;;;;;;10.05;2.10;;;;;;;;;;4884813;29;20768;-76
2023/06/26 14:24:07;;;;;;;11.90;1.98;;;;;;;;;;4902773;28;20047;-76
2023/06/26 14:26:33;;;;;;;12.20;2.13;;;;;;;;;;4904621;28;20246;-75
2023/06/26 14:29:00;;;;;;;10.98;2.22;;;;;;;;;;4904753;28;21348;-76
2023/06/26 14:31:26;;;;;;;8.68;2.05;;;;;;;;;;4899758;28;20194;-75
2023/06/26 14:33:52;;;;;;;7.57;1.90;;;;;;;;;;4921197;29;20047;-75
2023/06/26 14:36:19;;;;;;;9.43;1.92;;;;;;;;;;4892417;28;20119;-74
2023/06/26 14:38:45;;;;;;;12.48;3.05;;;;;;;;;;4912115;29;20091;-75
2023/06/26 14:41:12;;;;;;;7.93;2.53;;;;;;;;;;4891423;29;20046;-75
2023/06/26 14:43:39;;;;;;;8.18;2.50;;;;;;;;;;4899403;28;20049;-75